createdAt,value
2019-04-21T00:00:33.561Z,13.53
2019-04-21T00:03:13.166Z,13.62
2019-04-21T00:05:58.943Z,13.75
2019-04-21T00:08:41.596Z,13.15
2019-04-21T00:11:10.785Z,13.62
2019-04-21T00:13:31.325Z,12.85
2019-04-21T00:15:53.185Z,14.33
2019-04-21T00:18:20.989Z,13.43
2019-04-21T00:20:54.670Z,14.18
2019-04-21T00:23:37.482Z,14.80
2019-04-21T00:26:01.398Z,14.03
2019-04-21T00:28:42.365Z,13.75
2019-04-21T00:31:09.872Z,14.03
2019-04-21T00:33:28.012Z,15.03
2019-04-21T00:35:59.919Z,13.78
2019-04-21T00:38:49.084Z,15.10
2019-04-21T00:41:13.243Z,14.95
2019-04-21T00:43:38.905Z,14.70
2019-04-21T00:46:04.813Z,14.45
2019-04-21T00:48:47.569Z,14.95
2019-04-21T00:51:40.705Z,14.43
2019-04-21T00:54:06.905Z,15.78
2019-04-21T00:56:27.661Z,13.88
2019-04-21T00:58:59.864Z,14.45
2019-04-21T01:01:37.898Z,14.20
2019-04-21T01:04:10.137Z,14.68
2019-04-21T01:06:42.906Z,14.85
2019-04-21T01:09:02.676Z,14.35
2019-04-21T01:11:47.364Z,15.45
2019-04-21T01:14:12.027Z,15.15
2019-04-21T01:16:49.813Z,14.98
2019-04-21T01:19:12.107Z,16.77
2019-04-21T01:21:24.136Z,15.13
2019-04-21T01:23:55.698Z,16.50
2019-04-21T01:26:33.804Z,15.50
2019-04-21T01:29:11.925Z,15.40
2019-04-21T01:31:48.247Z,15.58
2019-04-21T01:34:20.633Z,16.85
2019-04-21T01:36:52.944Z,15.03
2019-04-21T01:39:30.813Z,15.53
2019-04-21T01:41:59.102Z,15.93
2019-04-21T01:44:38.768Z,15.18
2019-04-21T01:46:51.968Z,17.50
2019-04-21T01:49:19.194Z,16.40
2019-04-21T01:52:10.818Z,16.07
2019-04-21T01:54:43.551Z,17.12
2019-04-21T01:57:12.343Z,16.62
2019-04-21T01:59:39.576Z,15.53
2019-04-21T02:02:16.004Z,15.40
2019-04-21T02:04:52.277Z,16.82
2019-04-21T02:07:14.859Z,16.15
2019-04-21T02:09:49.211Z,16.17
2019-04-21T02:12:19.959Z,16.32
2019-04-21T02:15:06.298Z,16.75
2019-04-21T02:17:20.377Z,16.15
2019-04-21T02:19:46.213Z,16.07
2019-04-21T02:22:33.849Z,16.48
2019-04-21T02:24:58.041Z,17.02
2019-04-21T02:27:23.697Z,16.07
2019-04-21T02:29:55.154Z,16.95
2019-04-21T02:37:46.791Z,17.10
2019-04-21T02:40:11.569Z,16.40
2019-04-21T02:42:46.504Z,16.40
2019-04-21T02:45:17.096Z,16.17
2019-04-21T02:55:18.066Z,18.70
2019-04-21T02:57:59.412Z,17.40
2019-04-21T03:00:49.900Z,17.82
2019-04-21T03:06:15.411Z,16.82
2019-04-21T03:11:14.601Z,16.93
2019-04-21T03:14:01.048Z,17.23
2019-04-21T03:16:23.047Z,16.80
2019-04-21T03:19:01.846Z,16.75
2019-04-21T03:21:22.098Z,16.90
2019-04-21T03:23:53.638Z,17.05
2019-04-21T03:26:30.539Z,16.95
2019-04-21T03:28:54.542Z,16.70
2019-04-21T03:38:55.016Z,17.80
2019-04-21T03:41:32.257Z,17.02
2019-04-21T03:44:02.967Z,16.95
2019-04-21T03:49:04.954Z,17.87
2019-04-21T03:51:25.820Z,16.62
2019-04-21T03:54:07.872Z,17.35
2019-04-21T03:59:03.418Z,17.23
2019-04-21T04:01:50.979Z,16.90
2019-04-21T04:09:44.585Z,17.90
2019-04-21T04:12:26.392Z,19.50
2019-04-21T04:14:45.957Z,17.87
2019-04-21T04:19:44.785Z,19.02
2019-04-21T04:22:19.383Z,18.02
2019-04-21T04:25:07.894Z,17.70
2019-04-21T04:27:34.694Z,18.32
2019-04-21T04:29:50.683Z,18.00
2019-04-21T04:32:25.173Z,18.17
2019-04-21T04:35:02.135Z,17.98
2019-04-21T04:37:32.133Z,17.77
2019-04-21T04:40:10.675Z,18.67
2019-04-21T04:42:41.105Z,19.33
2019-04-21T04:45:28.266Z,19.35
2019-04-21T04:47:43.074Z,19.30
2019-04-21T04:50:15.399Z,20.27
2019-04-21T04:55:22.101Z,19.00
2019-04-21T04:57:59.117Z,18.80
2019-04-21T05:00:28.726Z,18.73
2019-04-21T05:02:56.420Z,17.77
2019-04-21T05:07:57.682Z,16.83
2019-04-21T05:10:29.509Z,16.50
2019-04-21T05:12:50.701Z,15.87
2019-04-21T05:15:23.419Z,15.25
2019-04-21T05:18:00.823Z,15.13
2019-04-21T05:20:24.022Z,15.48
2019-04-21T05:23:04.607Z,14.93
2019-04-21T05:25:23.386Z,14.65
2019-04-21T05:27:54.036Z,14.00
2019-04-21T05:30:45.465Z,15.08
2019-04-21T05:33:32.188Z,15.30
2019-04-21T05:36:20.438Z,14.03
2019-04-21T05:39:10.725Z,13.20
2019-04-21T05:41:34.644Z,14.98
2019-04-21T05:44:27.962Z,14.20
2019-04-21T05:47:01.156Z,13.83
2019-04-21T05:49:29.556Z,14.68
2019-04-21T05:52:00.368Z,14.73
2019-04-21T05:57:05.987Z,14.73
2019-04-21T05:59:39.999Z,15.00
2019-04-21T06:02:18.573Z,15.30
2019-04-21T06:05:07.190Z,15.53
2019-04-21T06:07:23.068Z,15.00
2019-04-21T06:12:38.194Z,15.15
2019-04-21T06:15:03.824Z,14.78
2019-04-21T06:17:36.853Z,16.30
2019-04-21T06:20:10.350Z,15.60
2019-04-21T06:22:50.654Z,15.48
2019-04-21T06:25:45.580Z,16.07
2019-04-21T06:28:30.556Z,15.75
2019-04-21T06:33:39.219Z,15.13
2019-04-21T06:36:23.994Z,15.65
2019-04-21T06:38:59.503Z,15.18
2019-04-21T06:51:38.964Z,15.50
2019-04-21T06:54:23.921Z,15.85
2019-04-21T06:57:22.086Z,15.30
2019-04-21T06:59:09.395Z,15.20
2019-04-21T07:07:04.600Z,16.32
2019-04-21T07:09:52.829Z,15.77
2019-04-21T07:12:19.178Z,15.75
2019-04-21T07:14:52.741Z,16.42
2019-04-21T07:17:24.345Z,16.60
2019-04-21T07:19:57.423Z,16.80
2019-04-21T07:22:24.947Z,16.67
2019-04-21T07:25:00.415Z,17.10
2019-04-21T07:27:30.186Z,16.80
2019-04-21T07:29:58.543Z,16.42
2019-04-21T07:32:50.055Z,16.48
2019-04-21T07:35:06.034Z,16.32
2019-04-21T07:37:30.511Z,16.33
2019-04-21T07:40:07.906Z,15.27
2019-04-21T07:42:35.519Z,17.35
2019-04-21T07:45:05.129Z,16.32
2019-04-21T07:47:39.539Z,17.50
2019-04-21T07:50:14.871Z,17.32
2019-04-21T07:57:44.092Z,17.05
2019-04-21T08:00:29.358Z,17.30
2019-04-21T08:02:53.983Z,17.02
2019-04-21T08:05:26.181Z,17.60
2019-04-21T08:07:55.826Z,18.00
2019-04-21T08:10:31.290Z,16.40
2019-04-21T08:12:54.315Z,18.25
2019-04-21T08:17:59.595Z,17.62
2019-04-21T08:20:28.522Z,18.23
2019-04-21T08:23:06.235Z,17.37
2019-04-21T08:25:35.251Z,17.65
2019-04-21T08:28:05.723Z,17.07
2019-04-21T08:30:47.822Z,17.73
2019-04-21T08:33:19.134Z,17.75
2019-04-21T08:38:10.363Z,17.42
2019-04-21T08:40:40.744Z,17.85
2019-04-21T08:43:12.629Z,16.70
2019-04-21T08:45:41.519Z,18.48
2019-04-21T08:48:10.566Z,17.95
2019-04-21T08:50:41.564Z,19.20
2019-04-21T08:53:32.027Z,17.15
2019-04-21T08:55:58.688Z,18.35
2019-04-21T09:01:06.079Z,17.57
2019-04-21T09:03:44.726Z,17.10
2019-04-21T09:06:22.541Z,17.98
2019-04-21T09:08:45.760Z,17.65
2019-04-21T09:11:12.665Z,17.85
2019-04-21T09:13:50.399Z,18.05
2019-04-21T09:16:18.803Z,16.70
2019-04-21T09:18:45.642Z,18.65
2019-04-21T09:21:22.488Z,17.70
2019-04-21T09:23:54.281Z,19.10
2019-04-21T09:26:25.233Z,17.87
2019-04-21T09:28:44.770Z,17.40
2019-04-21T09:31:05.302Z,17.25
2019-04-21T09:33:46.754Z,17.62
2019-04-21T09:36:14.314Z,17.82
2019-04-21T09:38:42.419Z,18.73
2019-04-21T09:41:15.487Z,17.92
2019-04-21T09:43:46.820Z,18.23
2019-04-21T09:46:11.826Z,18.52
2019-04-21T09:48:50.104Z,18.00
2019-04-21T09:51:11.179Z,17.95
2019-04-21T09:53:43.227Z,17.92
2019-04-21T09:56:14.754Z,18.82
2019-04-21T09:58:46.159Z,17.62
2019-04-21T10:01:22.775Z,18.32
2019-04-21T10:03:52.179Z,17.10
2019-04-21T10:06:19.132Z,18.30
2019-04-21T10:08:51.551Z,18.27
2019-04-21T10:11:20.760Z,22.73
2019-04-21T10:13:48.826Z,21.20
2019-04-21T10:16:36.389Z,17.85
2019-04-21T10:19:05.108Z,18.62
2019-04-21T10:21:36.402Z,18.45
2019-04-21T10:24:06.283Z,18.45
2019-04-21T10:26:35.591Z,16.52
2019-04-21T10:29:11.524Z,16.93
2019-04-21T10:31:34.962Z,19.37
2019-04-21T10:34:09.425Z,17.42
2019-04-21T10:36:39.057Z,17.87
2019-04-21T10:39:07.828Z,13.28
2019-04-21T10:41:37.339Z,19.90
2019-04-21T10:44:07.237Z,19.07
2019-04-21T10:46:36.906Z,17.12
2019-04-21T10:49:06.454Z,17.98
2019-04-21T10:51:35.250Z,17.52
2019-04-21T10:54:04.082Z,17.70
2019-04-21T10:56:37.975Z,18.07
2019-04-21T10:59:03.005Z,16.57
2019-04-21T11:01:38.907Z,16.42
2019-04-21T11:04:23.591Z,16.27
2019-04-21T11:06:48.818Z,18.10
2019-04-21T11:09:17.886Z,18.98
2019-04-21T11:11:49.563Z,18.45
2019-04-21T11:14:17.802Z,18.32
2019-04-21T11:16:48.018Z,18.25
2019-04-21T11:19:17.979Z,18.92
2019-04-21T11:21:47.095Z,15.48
2019-04-21T11:24:16.260Z,16.65
2019-04-21T11:26:47.631Z,15.90
2019-04-21T11:29:17.080Z,15.48
2019-04-21T11:31:47.208Z,16.85
2019-04-21T11:34:16.161Z,15.33
2019-04-21T11:36:48.063Z,15.72
2019-04-21T11:39:29.437Z,17.73
2019-04-21T11:41:49.823Z,17.32
2019-04-21T11:44:21.482Z,15.75
2019-04-21T11:46:49.024Z,15.53
2019-04-21T11:49:17.955Z,17.42
2019-04-21T11:51:46.980Z,17.70
2019-04-21T11:54:16.956Z,17.35
2019-04-21T11:56:45.748Z,17.12
2019-04-21T11:59:15.531Z,15.78
2019-04-21T12:01:45.578Z,14.65
2019-04-21T12:04:15.968Z,14.87
2019-04-21T12:06:47.625Z,13.45
2019-04-21T12:09:15.070Z,12.90
2019-04-21T12:11:45.218Z,13.15
2019-04-21T12:14:19.993Z,14.20
2019-04-21T12:16:48.799Z,14.05
2019-04-21T12:19:18.665Z,12.15
2019-04-21T12:21:58.884Z,12.60
2019-04-21T12:24:17.669Z,11.75
2019-04-21T12:26:46.497Z,12.82
2019-04-21T12:29:16.542Z,12.78
2019-04-21T12:32:05.670Z,11.97
2019-04-21T12:34:34.449Z,12.55
2019-04-21T12:37:04.503Z,12.03
2019-04-21T12:39:34.769Z,12.53
2019-04-21T12:42:04.669Z,13.93
2019-04-21T12:44:33.633Z,12.30
2019-04-21T12:47:03.614Z,12.88
2019-04-21T12:49:33.611Z,11.90
2019-04-21T12:52:03.737Z,13.47
2019-04-21T12:54:33.363Z,10.35
2019-04-21T12:57:03.366Z,10.53
2019-04-21T12:59:32.895Z,12.15
2019-04-21T13:02:03.272Z,13.58
2019-04-21T13:04:33.568Z,12.75
2019-04-21T13:07:03.670Z,12.05
2019-04-21T13:09:33.841Z,11.50
2019-04-21T13:12:02.763Z,10.88
2019-04-21T13:14:31.613Z,12.07
2019-04-21T13:17:01.354Z,12.03
2019-04-21T13:19:31.416Z,9.53
2019-04-21T13:22:01.443Z,10.45
2019-04-21T13:24:31.706Z,11.93
2019-04-21T13:27:03.223Z,11.57
2019-04-21T13:29:32.214Z,11.25
2019-04-21T13:32:08.778Z,11.07
2019-04-21T13:34:37.920Z,10.60
2019-04-21T13:37:09.818Z,12.70
2019-04-21T13:40:09.683Z,11.65
2019-04-21T13:42:31.439Z,11.45
2019-04-21T13:44:59.245Z,12.05
2019-04-21T13:47:28.255Z,12.23
2019-04-21T13:49:59.897Z,11.63
2019-04-21T13:52:28.904Z,13.28
2019-04-21T13:54:57.930Z,12.27
2019-04-21T13:57:32.525Z,11.22
2019-04-21T14:00:01.436Z,11.85
2019-04-21T14:02:30.953Z,12.23
2019-04-21T14:05:01.108Z,11.50
2019-04-21T14:07:30.374Z,10.73
2019-04-21T14:10:03.347Z,10.28
2019-04-21T14:12:29.708Z,8.48
2019-04-21T14:14:59.996Z,9.48
2019-04-21T14:17:28.898Z,7.30
2019-04-21T14:19:57.555Z,8.38
2019-04-21T14:22:26.810Z,8.50
2019-04-21T14:24:56.273Z,8.40
2019-04-21T14:27:26.227Z,8.15
2019-04-21T14:29:55.758Z,8.55
2019-04-21T14:32:24.579Z,7.65
2019-04-21T14:34:54.068Z,7.78
2019-04-21T14:37:22.886Z,8.35
2019-04-21T14:39:59.847Z,9.08
2019-04-21T14:42:22.175Z,9.00
2019-04-21T14:44:51.184Z,8.83
2019-04-21T14:47:40.015Z,8.45
2019-04-21T14:50:28.177Z,8.45
2019-04-21T14:53:07.754Z,8.43
2019-04-21T14:55:39.408Z,8.73
2019-04-21T14:58:09.436Z,8.58
2019-04-21T15:00:55.710Z,8.17
2019-04-21T15:03:25.824Z,8.58
2019-04-21T15:05:55.738Z,7.80
2019-04-21T15:08:25.008Z,7.87
2019-04-21T15:10:56.962Z,7.53
2019-04-21T15:13:25.917Z,7.83
2019-04-21T15:15:56.150Z,7.92
2019-04-21T15:18:26.103Z,8.73
2019-04-21T15:20:55.287Z,8.40
2019-04-21T15:23:26.375Z,8.63
2019-04-21T15:25:54.383Z,7.75
2019-04-21T15:28:23.129Z,7.90
2019-04-21T15:30:52.412Z,7.37
2019-04-21T15:33:22.295Z,8.53
2019-04-21T15:35:51.271Z,8.23
2019-04-21T15:38:20.163Z,8.13
2019-04-21T15:40:56.065Z,8.40
2019-04-21T15:43:22.389Z,7.12
2019-04-21T15:45:51.093Z,8.08
2019-04-21T15:48:20.202Z,8.10
2019-04-21T15:50:50.316Z,8.28
2019-04-21T15:53:21.631Z,8.70
2019-04-21T15:55:52.882Z,8.08
2019-04-21T15:58:24.520Z,8.10
2019-04-21T16:00:58.580Z,8.43
2019-04-21T16:03:28.923Z,8.40
2019-04-21T16:05:59.292Z,8.05
2019-04-21T16:08:29.029Z,7.87
2019-04-21T16:11:02.013Z,7.25
2019-04-21T16:13:28.093Z,8.08
2019-04-21T16:15:58.675Z,8.00
2019-04-21T16:18:27.980Z,7.87
2019-04-21T16:20:57.766Z,8.18
2019-04-21T16:23:26.663Z,7.78
2019-04-21T16:25:56.918Z,8.03
2019-04-21T16:28:26.855Z,8.57
2019-04-21T16:30:56.223Z,7.67
2019-04-21T16:33:25.162Z,7.50
2019-04-21T16:35:53.893Z,7.08
2019-04-21T16:38:23.678Z,7.60
2019-04-21T16:40:57.728Z,8.35
2019-04-21T16:43:22.912Z,8.73
2019-04-21T16:45:52.901Z,7.37
2019-04-21T16:48:21.615Z,7.22
2019-04-21T16:50:50.223Z,8.25
2019-04-21T16:53:35.611Z,7.95
2019-04-21T16:56:06.944Z,7.95
2019-04-21T16:58:38.856Z,6.65
2019-04-21T17:01:15.921Z,7.08
2019-04-21T17:03:42.552Z,6.62
2019-04-21T17:06:11.355Z,7.30
2019-04-21T17:08:40.928Z,7.28
2019-04-21T17:11:17.557Z,6.85
2019-04-21T17:13:40.094Z,7.25
2019-04-21T17:16:36.474Z,6.55
2019-04-21T17:18:51.353Z,6.72
2019-04-21T17:21:11.104Z,7.25
2019-04-21T17:23:41.158Z,7.47
2019-04-21T17:26:11.022Z,6.83
2019-04-21T17:28:40.653Z,6.47
2019-04-21T17:31:10.831Z,6.47
2019-04-21T17:33:39.659Z,6.60
2019-04-21T17:36:09.240Z,6.40
2019-04-21T17:38:37.927Z,6.55
2019-04-21T17:41:19.384Z,6.60
2019-04-21T17:43:37.425Z,6.72
2019-04-21T17:46:09.243Z,6.90
2019-04-21T17:48:40.628Z,7.15
2019-04-21T17:51:11.842Z,7.12
2019-04-21T17:54:00.710Z,7.83
2019-04-21T17:56:55.122Z,7.17
2019-04-21T17:59:28.190Z,6.23
2019-04-21T18:01:53.359Z,6.10
2019-04-21T18:04:18.365Z,6.72
2019-04-21T18:07:02.406Z,7.10
2019-04-21T18:09:47.095Z,6.55
2019-04-21T18:12:08.049Z,6.03
2019-04-21T18:14:22.312Z,6.42
2019-04-21T18:16:53.323Z,6.58
2019-04-21T18:19:27.780Z,6.45
2019-04-21T18:22:03.018Z,6.30
2019-04-21T18:24:40.709Z,6.37
2019-04-21T18:27:05.678Z,6.55
2019-04-21T18:29:33.945Z,6.37
2019-04-21T18:32:02.910Z,5.97
2019-04-21T18:34:42.822Z,6.10
2019-04-21T18:37:34.297Z,6.92
2019-04-21T18:40:06.888Z,6.03
2019-04-21T18:43:30.814Z,6.33
2019-04-21T18:46:11.563Z,5.60
2019-04-21T18:48:31.544Z,6.60
2019-04-21T18:51:10.508Z,6.90
2019-04-21T18:53:57.213Z,7.22
2019-04-21T18:56:20.871Z,7.15
2019-04-21T18:58:56.343Z,6.92
2019-04-21T19:01:29.323Z,7.03
2019-04-21T19:04:05.388Z,6.77
2019-04-21T19:06:51.702Z,6.97
2019-04-21T19:09:35.927Z,6.90
2019-04-21T19:12:05.207Z,6.55
2019-04-21T19:17:29.095Z,7.08
2019-04-21T19:19:44.154Z,6.97
2019-04-21T19:22:04.632Z,6.67
2019-04-21T19:27:45.508Z,6.30
2019-04-21T19:30:33.241Z,6.50
2019-04-21T19:32:55.841Z,6.70
2019-04-21T19:35:11.109Z,6.83
2019-04-21T19:37:55.180Z,8.35
2019-04-21T19:40:37.024Z,6.97
2019-04-21T19:43:07.007Z,7.15
2019-04-21T19:45:39.657Z,6.85
2019-04-21T19:48:18.171Z,7.33
2019-04-21T19:50:50.245Z,7.28
2019-04-21T19:53:32.908Z,6.75
2019-04-21T19:55:47.898Z,6.80
2019-04-21T19:58:31.226Z,6.22
2019-04-21T20:00:59.727Z,6.90
2019-04-21T20:03:36.687Z,7.92
2019-04-21T20:06:16.890Z,7.47
2019-04-21T20:08:56.439Z,7.25
2019-04-21T20:11:23.834Z,7.58
2019-04-21T20:14:44.802Z,7.65
2019-04-21T20:16:42.789Z,6.83
2019-04-21T20:19:01.451Z,7.25
2019-04-21T20:21:31.411Z,7.20
2019-04-21T20:24:06.144Z,6.95
2019-04-21T20:27:04.714Z,7.37
2019-04-21T20:29:44.737Z,7.33
2019-04-21T20:32:21.690Z,7.72
2019-04-21T20:34:50.943Z,7.37
2019-04-21T20:37:19.122Z,7.37
2019-04-21T20:39:45.590Z,8.25
2019-04-21T20:42:24.932Z,7.67
2019-04-21T20:45:38.393Z,8.05
2019-04-21T20:48:10.468Z,8.23
2019-04-21T20:51:00.330Z,8.23
2019-04-21T20:53:31.317Z,8.93
2019-04-21T20:55:53.081Z,8.68
2019-04-21T20:58:34.203Z,8.80
2019-04-21T21:01:25.705Z,8.98
2019-04-21T21:03:45.828Z,9.63
2019-04-21T21:06:16.103Z,9.98
2019-04-21T21:08:50.396Z,11.55
2019-04-21T21:11:23.126Z,11.35
2019-04-21T21:13:59.203Z,11.18
2019-04-21T21:16:41.897Z,10.43
2019-04-21T21:19:23.912Z,10.55
2019-04-21T21:21:45.919Z,10.35
2019-04-21T21:24:22.233Z,11.33
2019-04-21T21:26:58.160Z,11.57
2019-04-21T21:29:31.456Z,11.90
2019-04-21T21:32:08.531Z,11.75
2019-04-21T21:34:41.158Z,13.28
2019-04-21T21:37:21.185Z,12.30
2019-04-21T21:39:55.102Z,12.55
2019-04-21T21:42:07.590Z,12.28
2019-04-21T21:44:40.754Z,11.78
2019-04-21T21:47:32.139Z,13.22
2019-04-21T21:49:57.825Z,12.88
2019-04-21T21:52:29.758Z,13.48
2019-04-21T21:54:49.803Z,13.68
2019-04-21T21:57:26.426Z,13.30
2019-04-21T22:00:04.674Z,14.07
2019-04-21T22:02:43.798Z,11.63
2019-04-21T22:05:16.049Z,12.98
2019-04-21T22:07:49.888Z,13.45
2019-04-21T22:10:25.265Z,12.80
2019-04-21T22:13:03.016Z,13.00
2019-04-21T22:15:33.808Z,12.18
2019-04-21T22:18:27.335Z,13.32
2019-04-21T22:20:56.488Z,13.18
2019-04-21T22:23:26.067Z,13.25
2019-04-21T22:25:51.483Z,13.78
2019-04-21T22:28:25.526Z,12.47
2019-04-21T22:30:56.885Z,13.65
2019-04-21T22:33:38.662Z,13.75
2019-04-21T22:36:23.369Z,13.80
2019-04-21T22:38:51.875Z,13.20
2019-04-21T22:41:25.386Z,12.33
2019-04-21T22:43:51.640Z,12.47
2019-04-21T22:46:24.462Z,13.28
2019-04-21T22:49:00.909Z,13.30
2019-04-21T22:51:38.326Z,13.43
2019-04-21T22:54:12.775Z,13.40
2019-04-21T22:56:50.461Z,12.93
2019-04-21T22:59:20.963Z,13.35
2019-04-21T23:01:51.905Z,12.82
2019-04-21T23:04:36.820Z,13.85
2019-04-21T23:07:10.042Z,13.10
2019-04-21T23:09:56.078Z,12.25
2019-04-21T23:12:29.685Z,12.68
2019-04-21T23:15:13.034Z,13.08
2019-04-21T23:17:54.232Z,13.65
2019-04-21T23:20:29.734Z,13.18
2019-04-21T23:23:05.075Z,13.10
2019-04-21T23:25:31.800Z,13.03
2019-04-21T23:28:09.150Z,13.38
2019-04-21T23:30:52.932Z,12.88
2019-04-21T23:33:04.960Z,12.33
2019-04-21T23:36:19.605Z,13.83
2019-04-21T23:38:50.102Z,13.30
2019-04-21T23:41:17.369Z,14.10
2019-04-21T23:43:55.396Z,14.85
2019-04-21T23:46:34.706Z,14.98
2019-04-21T23:49:20.098Z,14.83
2019-04-21T23:51:45.295Z,16.60
2019-04-21T23:54:15.684Z,16.07
2019-04-21T23:56:47.614Z,16.77
2019-04-21T23:59:17.994Z,18.60
